Time;durP1;ratioP1;P1;durP2;ratioP2;P2;SDS_P1;SDS_P2;PMS_P1;PMS_P2;Temp;Humidity;BMP_temperature;BMP_pressure;BME280_temperature;BME280_humidity;BME280_pressure;Samples;Min_cycle;Max_cycle;Signal;HPM_P1;HPM_P2
2021/11/30 00:01:44;;;;;;;23.52;15.88;;;;;;;0.00;87.27;95303.84;1775449;80;22658;-80
2021/11/30 00:04:14;;;;;;;28.45;18.57;;;;;;;-0.02;87.48;95318.48;1771620;80;22177;-80
2021/11/30 00:06:40;;;;;;;25.97;18.90;;;;;;;-0.07;87.60;95313.01;1734223;81;21456;-80
2021/11/30 00:12:18;;;;;;;32.23;19.90;;;;;;;-0.05;87.85;95319.58;1770384;81;21039;-80
2021/11/30 00:14:45;;;;;;;30.75;18.65;;;;;;;-0.05;88.05;95325.16;1754547;81;21133;-80
2021/11/30 00:17:12;;;;;;;28.20;18.80;;;;;;;-0.10;88.04;95321.77;1762593;81;21364;-80
2021/11/30 00:19:38;;;;;;;35.05;22.17;;;;;;;-0.14;88.43;95330.66;1776389;80;21400;-80
2021/11/30 00:22:05;;;;;;;30.68;19.37;;;;;;;-0.17;88.33;95330.91;1780384;80;21004;-80
2021/11/30 00:24:31;;;;;;;24.27;16.25;;;;;;;-0.16;88.55;95333.03;1736474;81;21422;-80
2021/11/30 00:26:58;;;;;;;31.87;22.42;;;;;;;-0.17;88.41;95341.12;1779814;80;20951;-80
2021/11/30 00:29:24;;;;;;;27.52;18.70;;;;;;;-0.19;88.58;95339.19;1779934;80;21993;-80
2021/11/30 00:31:50;;;;;;;22.30;15.68;;;;;;;-0.20;88.65;95341.89;1730133;81;21041;-80
2021/11/30 00:34:16;;;;;;;21.95;16.67;;;;;;;-0.18;88.79;95356.59;1768630;80;20935;-80
2021/11/30 00:36:42;;;;;;;19.60;15.25;;;;;;;-0.20;88.60;95345.25;1768217;80;21029;-80
2021/11/30 00:39:08;;;;;;;20.90;15.45;;;;;;;-0.19;88.76;95364.72;1753788;81;21417;-80
2021/11/30 00:41:34;;;;;;;17.67;13.25;;;;;;;-0.22;88.59;95367.56;1783716;80;21315;-80
2021/11/30 00:44:01;;;;;;;25.23;16.95;;;;;;;-0.22;88.90;95367.56;1769736;80;21018;-80
2021/11/30 00:46:37;;;;;;;24.07;17.37;;;;;;;-0.26;88.82;95376.45;1778028;80;21000;-80
2021/11/30 00:49:05;;;;;;;21.75;16.23;;;;;;;-0.23;88.95;95364.68;1761687;81;21019;-80
2021/11/30 00:51:36;;;;;;;22.48;15.53;;;;;;;-0.18;89.00;95376.55;1793219;80;21062;-80
2021/11/30 00:54:02;;;;;;;23.38;17.00;;;;;;;-0.13;89.13;95392.27;1735822;81;20988;-80
2021/11/30 00:56:28;;;;;;;21.55;15.85;;;;;;;-0.13;89.07;95396.57;1780114;80;20986;-80
2021/11/30 00:58:55;;;;;;;23.73;16.07;;;;;;;-0.12;89.03;95404.09;1768377;81;21402;-81
2021/11/30 01:01:21;;;;;;;16.82;11.93;;;;;;;-0.10;89.09;95404.75;1772833;81;21068;-80
2021/11/30 01:03:47;;;;;;;18.62;13.85;;;;;;;-0.10;88.97;95409.86;1777062;80;20977;-80
2021/11/30 01:06:13;;;;;;;19.50;14.70;;;;;;;-0.12;88.73;95407.11;1771308;80;20975;-80
2021/11/30 01:08:39;;;;;;;19.40;13.90;;;;;;;-0.15;88.78;95406.13;1767800;80;20983;-80
2021/11/30 01:11:05;;;;;;;23.15;15.35;;;;;;;-0.18;88.97;95407.18;1769487;80;21031;-80
2021/11/30 01:13:33;;;;;;;21.82;15.58;;;;;;;-0.19;88.98;95413.23;1788509;80;21021;-80
2021/11/30 01:15:59;;;;;;;23.10;16.67;;;;;;;-0.16;89.07;95420.64;1782920;80;20969;-80
2021/11/30 01:18:25;;;;;;;20.85;14.33;;;;;;;-0.14;89.04;95428.16;1783096;80;21002;-80
2021/11/30 01:20:52;;;;;;;21.23;15.85;;;;;;;-0.16;89.01;95419.36;1772368;80;20988;-80
2021/11/30 01:23:19;;;;;;;21.93;15.53;;;;;;;-0.18;89.13;95425.05;1782948;80;21317;-80
2021/11/30 01:25:45;;;;;;;21.85;14.78;;;;;;;-0.16;89.27;95432.12;1782816;80;20973;-80
2021/11/30 01:28:11;;;;;;;19.85;15.25;;;;;;;-0.14;89.27;95421.77;1788047;80;21004;-80
2021/11/30 01:30:37;;;;;;;19.42;15.83;;;;;;;-0.13;89.23;95424.19;1777549;80;21058;-80
2021/11/30 01:33:05;;;;;;;21.80;14.95;;;;;;;-0.13;89.24;95428.48;1794446;80;20962;-80
2021/11/30 01:35:30;;;;;;;20.10;14.53;;;;;;;-0.15;89.39;95424.00;1768571;80;21072;-80
2021/11/30 01:37:56;;;;;;;20.72;15.00;;;;;;;-0.15;89.40;95426.08;1784319;80;21066;-80
2021/11/30 01:40:23;;;;;;;24.15;17.32;;;;;;;-0.14;89.45;95427.69;1770150;80;21040;-80
2021/11/30 01:42:50;;;;;;;19.20;15.88;;;;;;;-0.11;89.42;95423.57;1785077;80;20967;-80
2021/11/30 01:50:20;;;;;;;22.25;15.32;;;;;;;-0.12;89.57;95413.02;1772346;80;21370;-80
2021/11/30 01:52:49;;;;;;;19.10;14.78;;;;;;;-0.13;89.40;95417.80;1777525;80;21515;-80
2021/11/30 01:55:14;;;;;;;20.90;14.58;;;;;;;-0.10;89.56;95417.98;1767254;80;21016;-81
2021/11/30 01:57:40;;;;;;;20.25;15.40;;;;;;;-0.19;89.49;95392.81;1780738;80;21044;-80
2021/11/30 02:00:07;;;;;;;20.60;15.15;;;;;;;-0.01;89.41;95421.77;1795204;80;21032;-80
2021/11/30 02:02:33;;;;;;;27.22;19.30;;;;;;;0.00;89.42;95421.33;1774573;80;20948;-80
2021/11/30 02:04:59;;;;;;;22.15;16.17;;;;;;;0.02;89.51;95424.54;1791680;80;21319;-80
2021/11/30 02:07:25;;;;;;;22.93;16.00;;;;;;;0.02;89.28;95427.09;1767807;80;21011;-81
2021/11/30 02:09:51;;;;;;;19.95;14.70;;;;;;;0.04;89.36;95420.56;1784743;80;21006;-80
2021/11/30 02:12:17;;;;;;;27.00;17.98;;;;;;;0.06;89.22;95428.89;1784700;80;20982;-80
2021/11/30 02:14:46;;;;;;;28.57;18.17;;;;;;;0.06;89.23;95424.58;1795105;80;21359;-80
2021/11/30 02:17:10;;;;;;;23.42;15.83;;;;;;;0.06;89.24;95428.89;1792450;80;21010;-80
2021/11/30 02:19:49;;;;;;;21.25;15.95;;;;;;;0.04;89.19;95430.78;1753490;80;21052;-80
2021/11/30 02:22:13;;;;;;;18.02;14.55;;;;;;;0.05;89.18;95443.88;1788480;80;20981;-80
2021/11/30 02:24:39;;;;;;;18.32;13.88;;;;;;;0.05;89.19;95444.69;1784868;80;20995;-80
2021/11/30 02:27:05;;;;;;;19.27;14.10;;;;;;;0.04;89.08;95443.55;1784713;80;20989;-80
2021/11/30 02:29:31;;;;;;;25.17;16.65;;;;;;;-0.01;88.97;95453.69;1791763;80;21008;-80
2021/11/30 02:31:57;;;;;;;17.65;13.93;;;;;;;-0.01;89.22;95454.97;1767259;80;20951;-80
2021/11/30 02:34:22;;;;;;;20.00;15.30;;;;;;;0.01;89.21;95451.50;1774375;80;21050;-80
2021/11/30 02:36:51;;;;;;;24.72;16.35;;;;;;;0.02;89.24;95453.91;1772338;80;21337;-80
2021/11/30 02:39:20;;;;;;;27.77;15.28;;;;;;;0.03;89.38;95455.99;1777524;80;20953;-80
2021/11/30 02:41:46;;;;;;;18.42;13.62;;;;;;;0.03;89.31;95459.83;1756870;80;20979;-80
2021/11/30 02:44:15;;;;;;;19.55;14.43;;;;;;;-0.01;89.26;95454.97;1795301;80;21085;-80
2021/11/30 02:46:46;;;;;;;21.57;15.08;;;;;;;-0.02;89.22;95453.36;1795492;80;20993;-80
2021/11/30 02:49:15;;;;;;;18.92;12.47;;;;;;;0.03;89.30;95457.27;1795101;80;21056;-80
2021/11/30 02:51:44;;;;;;;17.55;13.38;;;;;;;0.04;89.31;95457.59;1780863;80;21001;-80
2021/11/30 02:54:13;;;;;;;23.83;14.20;;;;;;;-0.01;89.16;95455.44;1790124;80;21367;-80
2021/11/30 02:56:41;;;;;;;19.25;13.22;;;;;;;0.00;89.47;95463.47;1780274;80;21050;-80
2021/11/30 02:59:07;;;;;;;16.07;12.47;;;;;;;0.01;89.42;95466.83;1777449;80;21894;-80
2021/11/30 03:01:33;;;;;;;17.12;13.15;;;;;;;0.01;89.37;95464.27;1777761;80;20999;-80
2021/11/30 03:03:59;;;;;;;19.30;13.70;;;;;;;0.01;89.35;95467.63;1771152;80;21285;-80
2021/11/30 03:06:25;;;;;;;18.42;14.03;;;;;;;0.03;89.46;95475.15;1783695;80;21017;-80
2021/11/30 03:08:50;;;;;;;23.30;20.10;;;;;;;-0.02;89.45;95463.58;1765247;80;20987;-80
2021/11/30 03:11:16;;;;;;;19.40;13.93;;;;;;;-0.04;89.52;95464.66;1771637;78;21007;-80
2021/11/30 03:13:42;;;;;;;29.00;17.07;;;;;;;-0.03;89.49;95461.97;1787513;80;20979;-80
2021/11/30 03:16:08;;;;;;;17.02;12.55;;;;;;;-0.01;89.56;95471.57;1787759;80;21022;-80
2021/11/30 03:18:35;;;;;;;18.30;12.95;;;;;;;0.04;89.63;95467.81;1785302;80;21153;-80
2021/11/30 03:21:04;;;;;;;19.20;13.25;;;;;;;0.06;89.65;95473.11;1788080;80;20994;-80
2021/11/30 03:23:31;;;;;;;20.30;15.03;;;;;;;0.07;89.68;95470.09;1778080;80;21629;-80
2021/11/30 03:25:56;;;;;;;23.87;17.05;;;;;;;0.08;89.60;95467.39;1787848;80;20937;-80
2021/11/30 03:28:22;;;;;;;67.08;38.23;;;;;;;0.09;89.59;95468.20;1790194;80;21327;-80
2021/11/30 03:31:02;;;;;;;35.55;23.07;;;;;;;0.09;89.55;95468.20;1798356;80;21410;-80
2021/11/30 03:34:04;;;;;;;33.70;21.42;;;;;;;0.12;89.71;95470.47;1773370;80;21069;-80
2021/11/30 03:35:52;;;;;;;45.00;25.00;;;;;;;0.15;89.93;95472.26;1749309;80;21048;-80
2021/11/30 03:38:19;;;;;;;29.37;18.75;;;;;;;0.19;89.91;95463.87;1787976;80;21044;-80
2021/11/30 03:40:44;;;;;;;17.20;12.65;;;;;;;0.19;89.76;95469.78;1784541;80;20971;-80
2021/11/30 03:43:10;;;;;;;18.27;12.78;;;;;;;0.17;89.60;95466.56;1780587;80;20980;-80
2021/11/30 03:45:36;;;;;;;18.45;13.72;;;;;;;0.18;89.74;95466.09;1756203;80;21116;-80
2021/11/30 03:48:02;;;;;;;17.23;14.15;;;;;;;0.17;89.77;95475.98;1796877;80;20957;-80
2021/11/30 03:50:28;;;;;;;18.70;13.28;;;;;;;0.18;89.80;95469.92;1777510;80;21410;-80
2021/11/30 03:52:54;;;;;;;23.50;16.30;;;;;;;0.16;89.69;95470.51;1789590;80;21016;-80
2021/11/30 03:55:20;;;;;;;23.27;18.07;;;;;;;0.15;89.72;95471.45;1777375;80;20967;-80
2021/11/30 03:57:46;;;;;;;25.50;17.25;;;;;;;0.19;89.87;95472.34;1780324;80;21052;-80
2021/11/30 04:00:13;;;;;;;20.97;14.85;;;;;;;0.18;89.86;95469.92;1753286;82;21091;-80
2021/11/30 04:02:39;;;;;;;24.60;16.55;;;;;;;0.14;89.90;95469.38;1745781;82;21365;-80
2021/11/30 04:05:07;;;;;;;15.60;12.10;;;;;;;0.14;89.93;95471.13;1710260;83;21402;-80
2021/11/30 04:07:33;;;;;;;17.15;13.25;;;;;;;0.15;90.01;95466.34;1778968;80;21046;-80
2021/11/30 04:09:59;;;;;;;13.85;12.35;;;;;;;0.16;89.92;95471.78;1775463;80;21359;-80
2021/11/30 04:12:25;;;;;;;20.37;15.03;;;;;;;0.14;89.92;95470.66;1738738;82;21021;-80
2021/11/30 04:14:51;;;;;;;19.35;12.98;;;;;;;0.15;90.05;95471.45;1785119;80;21073;-80
2021/11/30 04:17:17;;;;;;;17.20;12.90;;;;;;;0.14;90.16;95471.13;1785378;80;20948;-80
2021/11/30 04:19:43;;;;;;;15.55;11.93;;;;;;;0.06;89.96;95471.03;1778144;80;21042;-80
2021/11/30 04:22:09;;;;;;;16.52;13.00;;;;;;;0.06;90.12;95472.31;1785791;80;21050;-80
2021/11/30 04:24:36;;;;;;;14.13;11.68;;;;;;;0.11;90.21;95472.69;1785463;80;21002;-80
2021/11/30 04:27:02;;;;;;;14.83;10.03;;;;;;;0.14;90.22;95487.26;1745352;82;21038;-79
2021/11/30 04:29:28;;;;;;;18.05;12.95;;;;;;;0.15;90.17;95481.67;1741803;82;20994;-80
2021/11/30 04:31:54;;;;;;;15.20;12.25;;;;;;;0.11;90.09;95482.43;1791454;80;20990;-80
2021/11/30 04:34:20;;;;;;;16.50;13.20;;;;;;;0.09;90.18;95485.59;1787654;80;21015;-80
2021/11/30 04:36:46;;;;;;;12.50;11.22;;;;;;;0.09;90.23;95483.05;1791284;80;21002;-80
2021/11/30 04:39:12;;;;;;;14.50;11.85;;;;;;;0.10;90.17;95482.58;1787788;80;20971;-80
2021/11/30 04:41:40;;;;;;;14.73;11.50;;;;;;;0.08;90.18;95481.44;1774760;80;20995;-80
2021/11/30 04:44:06;;;;;;;16.23;12.98;;;;;;;0.15;90.43;95476.56;1788485;80;21014;-80
2021/11/30 04:47:35;;;;;;;14.90;12.07;;;;;;;0.16;90.32;95485.84;1782294;80;20978;-80
2021/11/30 04:51:53;;;;;;;21.68;14.03;;;;;;;0.08;90.34;95489.58;1784552;80;21061;-80
2021/11/30 04:54:22;;;;;;;17.10;12.73;;;;;;;0.06;90.34;95491.47;1776867;80;21062;-80
2021/11/30 04:56:47;;;;;;;15.93;11.80;;;;;;;0.07;90.49;95491.33;1769892;80;21010;-80
2021/11/30 04:59:13;;;;;;;17.60;14.28;;;;;;;0.10;90.47;95492.31;1768462;80;21027;-80
2021/11/30 05:01:38;;;;;;;20.05;15.60;;;;;;;0.11;90.46;95499.03;1745058;81;21054;-80
2021/11/30 05:04:05;;;;;;;20.32;14.20;;;;;;;0.12;90.49;95501.92;1707598;81;21035;-80
2021/11/30 05:06:31;;;;;;;18.52;14.33;;;;;;;0.10;90.41;95509.39;1767527;80;21316;-80
2021/11/30 05:09:01;;;;;;;19.10;13.98;;;;;;;0.09;90.31;95500.92;1774618;80;21375;-79
2021/11/30 05:11:26;;;;;;;16.82;13.95;;;;;;;0.09;90.24;95489.44;1748499;80;21033;-80
2021/11/30 05:13:52;;;;;;;19.23;15.40;;;;;;;0.08;90.01;95495.96;1745134;81;20999;-80
2021/11/30 05:16:18;;;;;;;42.62;24.43;;;;;;;0.09;90.22;95495.82;1755062;81;21078;-80
2021/11/30 05:18:44;;;;;;;27.60;18.67;;;;;;;0.09;90.29;95499.65;1782699;80;21002;-80
2021/11/30 05:21:10;;;;;;;26.33;17.07;;;;;;;0.08;90.24;95490.38;1763824;81;21067;-80
2021/11/30 05:23:36;;;;;;;21.33;15.88;;;;;;;0.09;90.12;95493.73;1773772;81;20960;-80
2021/11/30 05:26:06;;;;;;;19.02;15.65;;;;;;;0.08;89.98;95489.10;1787647;80;21004;-80
2021/11/30 05:28:29;;;;;;;20.45;16.30;;;;;;;0.09;90.08;95494.55;1767121;80;20983;-80
2021/11/30 05:30:55;;;;;;;19.57;15.50;;;;;;;0.11;90.10;95492.65;1785931;80;20968;-80
2021/11/30 05:33:22;;;;;;;15.83;12.93;;;;;;;0.11;90.12;95488.02;1769328;80;20991;-80
2021/11/30 05:35:48;;;;;;;14.45;11.48;;;;;;;0.13;90.14;95491.23;1785621;80;20969;-80
2021/11/30 05:38:14;;;;;;;13.20;11.48;;;;;;;0.15;89.97;95490.61;1787935;80;21020;-79
2021/11/30 05:40:42;;;;;;;21.10;17.05;;;;;;;0.16;89.84;95485.39;1770173;80;20987;-79
2021/11/30 05:43:10;;;;;;;22.45;17.70;;;;;;;0.19;89.92;95486.86;1795431;80;21012;-79
2021/11/30 05:45:37;;;;;;;20.32;14.50;;;;;;;0.16;89.85;95487.95;1787466;80;21016;-79
2021/11/30 05:48:03;;;;;;;15.68;11.63;;;;;;;0.16;89.88;95476.45;1798336;80;20979;-79
2021/11/30 05:50:29;;;;;;;16.77;12.70;;;;;;;0.18;89.83;95475.84;1780810;80;21003;-79
2021/11/30 05:52:55;;;;;;;13.53;12.13;;;;;;;0.17;89.68;95470.39;1784326;80;21405;-79
2021/11/30 05:55:20;;;;;;;14.45;11.70;;;;;;;0.12;89.35;95469.98;1771450;80;20986;-79
2021/11/30 05:57:46;;;;;;;14.83;13.22;;;;;;;0.07;89.40;95473.45;1777299;80;20966;-79
2021/11/30 06:00:16;;;;;;;15.20;13.60;;;;;;;0.00;89.38;95467.30;1785305;80;20987;-79
2021/11/30 06:05:26;;;;;;;27.17;17.35;;;;;;;-0.01;89.36;95464.38;1785662;80;20982;-79
2021/11/30 06:07:52;;;;;;;19.60;13.75;;;;;;;-0.01;89.42;95459.27;1758560;80;20944;-79
2021/11/30 06:10:19;;;;;;;21.12;14.93;;;;;;;0.03;89.66;95462.38;1774186;80;21073;-79
2021/11/30 06:12:44;;;;;;;19.20;14.35;;;;;;;0.07;89.76;95459.87;1778317;80;20999;-79
2021/11/30 06:15:10;;;;;;;15.48;12.55;;;;;;;0.08;89.53;95460.20;1763529;81;21051;-80
2021/11/30 06:17:36;;;;;;;15.45;11.85;;;;;;;0.07;89.13;95450.93;1761283;81;21005;-79
2021/11/30 06:20:06;;;;;;;16.80;14.18;;;;;;;0.06;89.00;95457.79;1744620;81;21007;-79
2021/11/30 06:22:33;;;;;;;32.25;24.65;;;;;;;0.05;88.81;95466.39;1742905;81;21006;-79
2021/11/30 06:24:59;;;;;;;36.48;20.65;;;;;;;0.05;88.94;95465.59;1743160;81;21484;-79
2021/11/30 06:27:25;;;;;;;23.32;16.73;;;;;;;0.05;88.90;95463.84;1753225;81;21014;-79
2021/11/30 06:29:51;;;;;;;20.20;13.72;;;;;;;0.02;88.84;95464.13;1761010;81;21023;-79
2021/11/30 06:32:17;;;;;;;15.18;11.68;;;;;;;0.05;88.77;95460.02;1723286;81;20963;-80
2021/11/30 06:34:42;;;;;;;23.52;14.63;;;;;;;0.04;88.70;95457.13;1763022;81;20966;-79
2021/11/30 06:37:09;;;;;;;22.17;14.60;;;;;;;0.04;88.72;95455.05;1773187;81;21001;-79
2021/11/30 06:39:36;;;;;;;16.30;12.37;;;;;;;0.04;88.83;95455.05;1756792;81;20995;-79
2021/11/30 06:42:03;;;;;;;13.85;8.75;;;;;;;0.03;88.60;95451.69;1768939;81;21076;-79
2021/11/30 06:44:32;;;;;;;19.23;13.25;;;;;;;0.03;88.38;95449.61;1760870;81;21006;-80
2021/11/30 06:46:57;;;;;;;17.98;11.75;;;;;;;0.03;88.33;95447.05;1759194;81;20997;-79
2021/11/30 06:49:23;;;;;;;16.50;11.80;;;;;;;0.03;88.42;95449.13;1763156;81;21005;-79
2021/11/30 06:51:48;;;;;;;16.50;11.25;;;;;;;0.02;88.48;95455.66;1772970;81;21050;-79
2021/11/30 06:54:14;;;;;;;16.62;12.95;;;;;;;0.04;88.37;95449.94;1773429;81;20994;-79
2021/11/30 06:56:40;;;;;;;16.23;11.20;;;;;;;0.07;88.66;95451.73;1752342;81;21121;-79
2021/11/30 06:59:06;;;;;;;16.82;11.20;;;;;;;0.11;88.66;95456.89;1752818;81;20955;-79
2021/11/30 07:01:33;;;;;;;23.65;17.73;;;;;;;0.17;88.68;95451.71;1762735;81;21412;-79
2021/11/30 07:04:02;;;;;;;27.40;18.27;;;;;;;0.21;88.59;95450.00;1748710;81;22109;-79
2021/11/30 07:06:36;;;;;;;25.10;15.68;;;;;;;0.23;88.32;95444.28;1742760;81;21382;-79
2021/11/30 07:09:14;;;;;;;20.00;11.83;;;;;;;0.22;88.25;95441.39;1758716;81;21005;-79
2021/11/30 07:14:07;;;;;;;98.37;38.75;;;;;;;0.30;88.38;95435.56;1773304;81;21018;-80
2021/11/30 07:16:33;;;;;;;132.80;51.20;;;;;;;0.42;88.44;95438.74;1754926;81;21066;-79
2021/11/30 07:18:59;;;;;;;56.90;25.15;;;;;;;0.44;88.50;95432.54;1741403;81;21376;-79
2021/11/30 07:21:26;;;;;;;49.20;22.45;;;;;;;0.44;88.26;95431.26;1762678;81;21015;-79
2021/11/30 07:23:54;;;;;;;59.85;26.62;;;;;;;0.49;88.45;95434.69;1755722;81;21473;-79
2021/11/30 07:26:20;;;;;;;57.50;26.37;;;;;;;0.54;88.42;95425.63;1758953;81;21014;-79
2021/11/30 07:28:45;;;;;;;27.00;16.52;;;;;;;0.59;88.07;95437.50;1745486;81;21006;-79
2021/11/30 07:31:12;;;;;;;40.12;20.68;;;;;;;0.60;87.98;95427.60;1753562;81;21030;-79
2021/11/30 07:33:44;;;;;;;26.95;15.35;;;;;;;0.63;87.95;95433.38;1743068;81;20995;-79
2021/11/30 07:36:10;;;;;;;;;;;;;;;0.63;87.85;95429.06;1752792;81;21078;-79
2021/11/30 07:38:38;;;;;;;11.83;9.45;;;;;;;0.63;87.71;95430.34;1756116;81;20165;-79
2021/11/30 07:41:05;;;;;;;10.58;8.50;;;;;;;0.62;87.45;95424.09;1748607;81;21044;-79
2021/11/30 07:43:31;;;;;;;11.60;8.70;;;;;;;0.66;87.69;95430.08;1772028;81;21363;-79
2021/11/30 07:45:58;;;;;;;12.35;9.13;;;;;;;0.69;87.77;95426.42;1755786;81;21492;-79
2021/11/30 07:48:25;;;;;;;12.10;9.75;;;;;;;0.69;87.51;95411.09;1753184;81;20994;-79
2021/11/30 07:50:51;;;;;;;11.97;8.73;;;;;;;0.70;87.68;95413.97;1749713;81;21032;-79
2021/11/30 07:53:17;;;;;;;9.15;6.72;;;;;;;0.68;87.21;95412.84;1756964;81;21081;-79
2021/11/30 07:55:43;;;;;;;10.75;8.38;;;;;;;0.68;86.47;95409.00;1743292;81;21019;-80
2021/11/30 07:58:09;;;;;;;9.88;6.95;;;;;;;0.67;86.46;95407.40;1758951;81;21017;-79
2021/11/30 08:00:35;;;;;;;7.53;6.60;;;;;;;0.65;86.34;95404.19;1766117;81;21057;-80
2021/11/30 08:03:02;;;;;;;6.28;5.55;;;;;;;0.65;85.75;95400.80;1776925;81;20985;-79
2021/11/30 08:05:27;;;;;;;9.80;7.10;;;;;;;0.64;85.89;95406.86;1772221;81;21062;-79
2021/11/30 08:07:53;;;;;;;10.03;6.67;;;;;;;0.68;86.01;95402.61;1767206;81;21090;-79
2021/11/30 08:10:21;;;;;;;9.73;6.80;;;;;;;0.70;85.83;95397.35;1770252;81;20986;-79
2021/11/30 08:12:47;;;;;;;9.18;7.87;;;;;;;0.72;86.18;95395.45;1759195;81;21083;-79
2021/11/30 08:15:14;;;;;;;11.22;7.40;;;;;;;0.75;86.22;95402.34;1761910;81;21123;-79
2021/11/30 08:17:40;;;;;;;11.03;6.92;;;;;;;0.78;85.23;95393.11;1779724;80;20999;-79
2021/11/30 08:20:06;;;;;;;10.32;7.67;;;;;;;0.81;85.61;95394.56;1765425;80;20959;-79
2021/11/30 08:22:36;;;;;;;11.73;7.65;;;;;;;0.83;85.13;95387.58;1778391;80;21157;-79
2021/11/30 08:25:02;;;;;;;11.40;7.87;;;;;;;0.86;85.21;95379.61;1786549;80;20957;-79
2021/11/30 08:27:28;;;;;;;13.05;7.87;;;;;;;0.91;85.43;95388.91;1746178;81;21079;-79
2021/11/30 08:29:54;;;;;;;8.20;6.40;;;;;;;0.93;84.87;95392.13;1743653;81;21408;-79
2021/11/30 08:32:22;;;;;;;8.38;6.40;;;;;;;0.92;84.22;95390.52;1771208;80;20963;-79
2021/11/30 08:34:49;;;;;;;9.10;7.92;;;;;;;0.93;84.31;95390.84;1775690;80;20984;-79
2021/11/30 08:37:15;;;;;;;8.10;6.22;;;;;;;0.97;83.44;95398.55;1782609;80;20993;-79
2021/11/30 08:39:41;;;;;;;7.58;6.45;;;;;;;0.98;83.48;95391.23;1771104;80;20978;-80
2021/11/30 08:42:10;;;;;;;10.15;7.50;;;;;;;1.03;83.73;95395.90;1783984;79;21004;-79
2021/11/30 08:44:36;;;;;;;6.83;5.85;;;;;;;1.05;83.62;95403.75;1792817;80;21040;-79
2021/11/30 08:47:04;;;;;;;8.35;6.47;;;;;;;1.08;83.35;95400.89;1790624;80;21048;-79
2021/11/30 08:49:29;;;;;;;7.40;6.37;;;;;;;1.08;83.37;95397.05;1783127;80;20996;-79
2021/11/30 08:51:56;;;;;;;10.30;7.35;;;;;;;1.08;83.24;95400.09;1753918;81;20981;-79
2021/11/30 08:54:27;;;;;;;8.98;6.83;;;;;;;1.03;82.85;95389.50;1772951;80;20979;-79
2021/11/30 08:56:53;;;;;;;5.67;5.08;;;;;;;0.95;82.17;95395.81;1771584;81;20978;-79
2021/11/30 08:59:19;;;;;;;7.65;6.40;;;;;;;0.86;82.07;95384.72;1736930;81;21059;-79
2021/11/30 09:01:45;;;;;;;8.60;7.40;;;;;;;0.77;82.09;95381.75;1741625;82;21420;-79
2021/11/30 09:04:11;;;;;;;8.40;6.22;;;;;;;0.75;82.61;95379.81;1741480;82;21014;-79
2021/11/30 09:06:37;;;;;;;12.23;9.73;;;;;;;0.73;82.53;95376.60;1743100;82;20928;-79
2021/11/30 09:09:06;;;;;;;6.50;5.87;;;;;;;0.73;82.64;95376.60;1757967;82;21370;-79
2021/11/30 09:11:33;;;;;;;7.00;5.53;;;;;;;0.73;82.00;95366.37;1756178;82;21046;-79
2021/11/30 09:13:59;;;;;;;6.83;6.22;;;;;;;0.75;82.54;95367.03;1751087;82;21055;-79
2021/11/30 09:16:26;;;;;;;7.53;6.67;;;;;;;0.73;82.41;95368.93;1748069;82;21000;-79
2021/11/30 09:18:52;;;;;;;6.75;6.05;;;;;;;0.76;81.83;95366.08;1750828;82;20960;-79
2021/11/30 09:21:17;;;;;;;7.17;6.47;;;;;;;0.73;81.72;95356.95;1749544;82;20966;-79
2021/11/30 09:23:45;;;;;;;8.80;7.10;;;;;;;0.77;82.10;95351.86;1723914;82;21031;-80
2021/11/30 09:26:12;;;;;;;7.37;6.58;;;;;;;0.78;82.19;95341.96;1740379;82;21473;-79
2021/11/30 09:28:38;;;;;;;6.80;5.75;;;;;;;0.83;82.37;95338.98;1749483;82;21393;-79
2021/11/30 09:31:05;;;;;;;6.20;5.35;;;;;;;0.86;81.98;95334.85;1758120;82;20916;-79
2021/11/30 09:33:30;;;;;;;5.90;5.30;;;;;;;0.87;82.07;95321.91;1757494;81;21042;-79
2021/11/30 09:35:56;;;;;;;6.70;5.85;;;;;;;0.91;81.49;95318.58;1740681;82;21027;-79
2021/11/30 09:38:22;;;;;;;5.80;5.15;;;;;;;0.96;81.41;95320.20;1740587;82;21011;-79
2021/11/30 09:40:50;;;;;;;6.22;5.45;;;;;;;0.96;81.55;95307.42;1742193;82;20980;-79
2021/11/30 09:43:16;;;;;;;6.55;5.30;;;;;;;0.99;81.17;95310.98;1736131;81;21030;-79
2021/11/30 09:45:41;;;;;;;6.10;5.35;;;;;;;1.07;81.78;95295.67;1748624;82;21015;-79
2021/11/30 09:48:13;;;;;;;5.67;5.17;;;;;;;1.14;81.40;95293.34;1741195;82;21011;-79
2021/11/30 09:50:41;;;;;;;6.87;6.17;;;;;;;1.15;81.13;95294.94;1750752;82;21078;-79
2021/11/30 09:53:09;;;;;;;5.15;4.62;;;;;;;1.15;80.73;95283.43;1749197;82;20952;-79
2021/11/30 09:55:36;;;;;;;5.20;4.70;;;;;;;1.12;79.96;95264.03;1758246;82;21052;-79
2021/11/30 09:58:03;;;;;;;5.25;4.65;;;;;;;1.15;79.65;95268.08;1758111;82;21015;-79
2021/11/30 10:00:30;;;;;;;4.62;4.22;;;;;;;1.19;79.80;95262.50;1766850;80;21428;-79
2021/11/30 10:02:56;;;;;;;4.62;4.20;;;;;;;1.29;79.68;95252.61;1775456;80;21055;-79
2021/11/30 10:05:23;;;;;;;4.87;4.03;;;;;;;1.33;79.31;95255.22;1785594;80;21035;-79
2021/11/30 10:07:51;;;;;;;5.75;4.20;;;;;;;1.38;78.43;95245.31;1761844;80;21001;-80
2021/11/30 10:10:29;;;;;;;6.17;4.20;;;;;;;1.36;78.10;95226.75;1765026;81;21526;-79
2021/11/30 10:13:07;;;;;;;5.92;4.50;;;;;;;1.35;77.92;95214.44;1745711;81;21048;-80
2021/11/30 10:15:56;;;;;;;5.78;4.90;;;;;;;1.37;79.02;95220.20;1766130;81;21073;-79
2021/11/30 10:18:30;;;;;;;6.65;4.75;;;;;;;1.39;78.48;95205.48;1753711;81;20981;-80
2021/11/30 10:21:20;;;;;;;8.40;5.85;;;;;;;1.47;78.05;95195.30;1767127;81;21045;-79
2021/11/30 10:24:01;;;;;;;7.83;6.03;;;;;;;1.50;77.90;95187.30;1771902;81;21037;-79
2021/11/30 10:26:32;;;;;;;5.10;4.20;;;;;;;1.54;77.22;95170.34;1756252;81;21006;-79
2021/11/30 10:29:08;;;;;;;5.75;4.45;;;;;;;1.58;77.10;95172.91;1735370;81;21006;-80
2021/11/30 10:31:37;;;;;;;6.53;4.65;;;;;;;1.61;76.60;95179.80;1767220;81;20988;-80
2021/11/30 10:34:22;;;;;;;5.33;3.40;;;;;;;1.64;76.42;95165.42;1754902;81;21080;-79
2021/11/30 10:37:08;;;;;;;6.20;5.33;;;;;;;1.67;75.60;95160.47;1725292;81;20989;-79
2021/11/30 10:39:37;;;;;;;6.87;5.78;;;;;;;1.65;75.14;95154.23;1740223;81;21070;-79
2021/11/30 10:42:24;;;;;;;6.00;5.08;;;;;;;1.69;76.59;95143.19;1762779;81;21011;-79
2021/11/30 10:44:53;;;;;;;4.03;3.33;;;;;;;1.73;76.38;95143.19;1775850;81;21462;-79
2021/11/30 10:47:23;;;;;;;5.17;4.15;;;;;;;1.77;75.31;95138.06;1765585;81;21066;-79
2021/11/30 10:49:53;;;;;;;4.58;2.92;;;;;;;1.83;75.45;95138.73;1764068;81;21460;-79
2021/11/30 10:52:30;;;;;;;5.33;4.00;;;;;;;1.90;74.90;95139.69;1765865;81;21064;-79
2021/11/30 10:55:14;;;;;;;5.95;4.22;;;;;;;1.92;75.13;95126.23;1756485;81;21371;-79
2021/11/30 10:57:43;;;;;;;5.90;4.28;;;;;;;1.98;75.47;95131.22;1745724;81;21413;-79
2021/11/30 11:00:24;;;;;;;6.97;5.17;;;;;;;2.04;76.17;95126.25;1763379;81;21013;-79
2021/11/30 11:05:37;;;;;;;5.58;4.03;;;;;;;2.00;75.27;95119.05;1745758;81;21014;-79
2021/11/30 11:08:10;;;;;;;4.95;4.35;;;;;;;1.98;74.72;95110.73;1736450;81;21031;-79
2021/11/30 11:10:39;;;;;;;5.42;4.20;;;;;;;1.94;75.78;95101.73;1749174;81;21053;-79
2021/11/30 11:13:28;;;;;;;4.65;3.62;;;;;;;1.96;75.87;95093.44;1789225;80;20962;-79
2021/11/30 11:15:56;;;;;;;3.45;3.15;;;;;;;1.86;74.91;95090.22;1730707;81;20986;-79
2021/11/30 11:18:32;;;;;;;4.20;3.72;;;;;;;1.75;75.71;95084.92;1757738;81;21054;-79
2021/11/30 11:21:32;;;;;;;5.05;4.50;;;;;;;1.65;75.91;95068.45;1781240;80;20948;-80
2021/11/30 11:24:19;;;;;;;5.35;4.05;;;;;;;1.61;76.45;95072.27;1773735;80;21079;-79
2021/11/30 11:26:53;;;;;;;4.72;3.58;;;;;;;1.59;76.58;95060.58;1756649;81;20995;-79
2021/11/30 11:29:29;;;;;;;4.40;4.00;;;;;;;1.54;76.18;95052.11;1780139;80;20967;-79
2021/11/30 11:32:01;;;;;;;5.42;4.12;;;;;;;1.48;76.86;95049.71;1733811;81;21006;-79
2021/11/30 11:34:31;;;;;;;5.17;4.60;;;;;;;1.46;77.15;95048.23;1752730;81;22066;-79
2021/11/30 11:36:59;;;;;;;5.62;4.78;;;;;;;1.44;77.20;95038.16;1773669;80;20971;-79
2021/11/30 11:39:28;;;;;;;5.08;4.22;;;;;;;1.46;77.24;95024.75;1783451;80;21118;-79
2021/11/30 11:42:07;;;;;;;4.55;3.67;;;;;;;1.43;77.44;95017.84;1774258;80;21023;-79
2021/11/30 11:44:33;;;;;;;4.37;3.50;;;;;;;1.42;77.47;95027.28;1730192;81;21031;-79
2021/11/30 11:47:08;;;;;;;5.60;3.42;;;;;;;1.39;77.47;95013.53;1784179;80;21033;-79
2021/11/30 11:49:40;;;;;;;4.20;3.35;;;;;;;1.29;78.33;95009.03;1732249;81;21019;-79
2021/11/30 11:52:28;;;;;;;4.00;3.40;;;;;;;1.29;78.14;95001.35;1753070;81;21013;-79